createdAt,value
2023-04-15T00:02:29.773Z,8.09
2023-04-15T00:07:32.305Z,8.09
2023-04-15T00:12:34.123Z,8.11
2023-04-15T00:17:36.340Z,8.11
2023-04-15T00:22:38.182Z,8.11
2023-04-15T00:27:40.729Z,8.11
2023-04-15T00:32:42.701Z,8.09
2023-04-15T00:37:46.217Z,8.08
2023-04-15T00:42:48.362Z,8.07
2023-04-15T00:47:51.460Z,8.06
2023-04-15T00:52:53.284Z,8.06
2023-04-15T00:57:55.125Z,8.05
2023-04-15T01:02:58.030Z,8.07
2023-04-15T01:08:00.363Z,8.07
2023-04-15T01:13:03.717Z,8.07
2023-04-15T01:18:06.125Z,8.05
2023-04-15T01:23:08.531Z,8.06
2023-04-15T01:28:10.918Z,8.05
2023-04-15T01:33:13.378Z,8.05
2023-04-15T01:38:15.496Z,8.05
2023-04-15T01:43:17.880Z,8.06
2023-04-15T01:48:19.831Z,8.05
2023-04-15T01:53:21.694Z,8.05
2023-04-15T01:58:23.532Z,8.06
2023-04-15T02:03:25.918Z,8.07
2023-04-15T02:08:28.693Z,8.07
2023-04-15T02:13:31.814Z,8.06
2023-04-15T02:18:33.824Z,8.04
2023-04-15T02:23:35.923Z,8.05
2023-04-15T02:28:37.812Z,8.05
2023-04-15T02:33:39.651Z,8.05
2023-04-15T02:38:47.623Z,8.04
2023-04-15T02:43:51.010Z,8.01
2023-04-15T02:48:53.951Z,8.04
2023-04-15T02:53:58.489Z,8.04
2023-04-15T02:59:01.058Z,8.03
2023-04-15T03:04:03.358Z,8.03
2023-04-15T03:09:05.658Z,8.01
2023-04-15T03:14:13.172Z,8.01
2023-04-15T03:19:19.479Z,8.00
2023-04-15T03:24:21.433Z,7.99
2023-04-15T03:29:24.060Z,8.00
2023-04-15T03:34:25.918Z,7.97
2023-04-15T03:39:27.838Z,7.95
2023-04-15T03:44:29.867Z,7.95
2023-04-15T03:49:31.805Z,7.92
2023-04-15T03:54:33.836Z,7.92
2023-04-15T03:59:35.674Z,7.92
2023-04-15T04:04:37.618Z,7.90
2023-04-15T04:09:40.820Z,7.88
2023-04-15T04:14:42.695Z,7.87
2023-04-15T04:19:44.668Z,7.86
2023-04-15T04:24:46.648Z,7.87
2023-04-15T04:29:50.074Z,7.90
2023-04-15T04:34:51.914Z,7.91
2023-04-15T04:39:53.897Z,7.93
2023-04-15T04:44:55.688Z,7.92
2023-04-15T04:49:57.509Z,7.95
2023-04-15T04:54:59.548Z,7.99
2023-04-15T05:00:02.156Z,7.99
2023-04-15T05:05:07.958Z,8.01
2023-04-15T05:10:10.436Z,8.01
2023-04-15T05:15:12.401Z,8.04
2023-04-15T05:20:14.558Z,8.09
2023-04-15T05:25:17.039Z,8.15
2023-04-15T05:30:19.183Z,8.15
2023-04-15T05:35:21.669Z,8.14
2023-04-15T05:40:23.696Z,8.18
2023-04-15T05:45:25.616Z,8.17
2023-04-15T05:50:27.865Z,8.13
2023-04-15T05:55:29.680Z,8.13
2023-04-15T06:00:31.441Z,8.13
2023-04-15T06:05:33.533Z,8.13
2023-04-15T06:10:36.927Z,8.12
2023-04-15T06:15:39.003Z,8.10
2023-04-15T06:20:44.546Z,8.11
2023-04-15T06:25:46.720Z,8.10
2023-04-15T06:30:48.669Z,8.12
2023-04-15T06:35:51.071Z,8.17
2023-04-15T06:40:52.850Z,8.17
2023-04-15T06:45:54.743Z,8.19
2023-04-15T06:50:58.403Z,8.20
2023-04-15T06:56:00.202Z,8.22
2023-04-15T07:01:03.978Z,8.28
2023-04-15T07:06:07.215Z,8.32
2023-04-15T07:11:09.146Z,8.33
2023-04-15T07:16:11.362Z,8.35
2023-04-15T07:21:13.347Z,8.40
2023-04-15T07:26:15.260Z,8.48
2023-04-15T07:31:17.556Z,8.50
2023-04-15T07:36:19.750Z,8.52
2023-04-15T07:41:22.609Z,8.56
2023-04-15T07:46:26.906Z,8.63
2023-04-15T07:51:29.811Z,8.79
2023-04-15T07:56:31.560Z,8.94
2023-04-15T08:01:33.416Z,9.06
2023-04-15T08:06:37.498Z,9.28
2023-04-15T08:11:39.485Z,9.43
2023-04-15T08:16:41.540Z,9.42
2023-04-15T08:21:43.536Z,9.40
2023-04-15T08:26:46.980Z,9.39
2023-04-15T08:31:49.248Z,9.43
2023-04-15T08:36:51.642Z,9.48
2023-04-15T08:42:05.985Z,9.49
2023-04-15T08:47:09.356Z,9.47
2023-04-15T08:52:12.735Z,9.50
2023-04-15T08:57:15.866Z,9.58
2023-04-15T09:02:18.206Z,9.56
2023-04-15T09:07:20.539Z,9.51
2023-04-15T09:12:22.528Z,9.53
2023-04-15T09:17:26.990Z,9.58
2023-04-15T09:22:33.422Z,9.49
2023-04-15T09:27:37.739Z,9.39
2023-04-15T09:32:52.612Z,9.34
2023-04-15T09:38:10.238Z,9.31
2023-04-15T09:43:17.716Z,9.30
2023-04-15T09:48:27.467Z,9.33
2023-04-15T09:53:31.745Z,9.31
2023-04-15T09:58:35.806Z,9.34
2023-04-15T10:03:40.221Z,9.41
2023-04-15T10:08:42.817Z,9.41
2023-04-15T10:13:49.348Z,9.35
2023-04-15T10:18:55.694Z,9.31
2023-04-15T10:23:58.733Z,9.33
2023-04-15T10:29:01.790Z,9.29
2023-04-15T10:34:06.626Z,9.31
2023-04-15T10:39:34.361Z,9.27
2023-04-15T10:44:43.550Z,9.23
2023-04-15T10:49:57.203Z,9.21
2023-04-15T10:55:11.083Z,9.25
2023-04-15T11:00:14.175Z,9.35
2023-04-15T11:05:17.743Z,9.44
2023-04-15T11:10:26.048Z,9.47
2023-04-15T11:15:33.353Z,9.50
2023-04-15T11:20:37.696Z,9.46
2023-04-15T11:25:39.605Z,9.44
2023-04-15T11:30:42.841Z,9.49
2023-04-15T11:37:07.216Z,9.49
2023-04-15T11:42:18.735Z,9.48
2023-04-15T11:47:24.997Z,9.45
2023-04-15T11:52:27.334Z,9.40
2023-04-15T11:57:32.730Z,9.36
2023-04-15T12:03:13.011Z,9.35
2023-04-15T12:08:15.030Z,9.40
2023-04-15T12:13:17.044Z,9.39
2023-04-15T12:18:48.914Z,9.40
2023-04-15T12:23:56.207Z,9.46
2023-04-15T12:49:11.185Z,9.64
2023-04-15T13:00:39.330Z,9.60
2023-04-15T13:12:47.068Z,9.49
2023-04-15T13:18:19.577Z,9.54
2023-04-15T13:23:21.528Z,9.58
2023-04-15T13:28:23.680Z,9.72
2023-04-15T13:33:25.999Z,9.92
2023-04-15T13:38:30.720Z,10.13
2023-04-15T13:43:34.453Z,10.32
2023-04-15T13:49:03.037Z,10.45
2023-04-15T13:54:05.140Z,10.67
2023-04-15T13:59:08.783Z,10.75
2023-04-15T14:04:11.061Z,10.75
2023-04-15T14:09:14.077Z,10.69
2023-04-15T14:14:16.561Z,10.65
2023-04-15T14:19:18.578Z,10.69
2023-04-15T14:24:22.970Z,10.80
2023-04-15T14:29:25.136Z,10.76
2023-04-15T14:34:27.485Z,10.74
2023-04-15T14:39:29.427Z,10.69
2023-04-15T14:49:33.077Z,10.72
2023-04-15T14:54:35.151Z,10.77
2023-04-15T14:59:36.959Z,10.79
2023-04-15T15:05:34.376Z,10.83
2023-04-15T15:10:49.092Z,10.91
2023-04-15T15:15:52.188Z,10.98
2023-04-15T15:26:23.550Z,11.12
2023-04-15T15:31:28.654Z,11.16
2023-04-15T15:48:41.673Z,11.11
2023-04-15T15:53:44.950Z,11.09
2023-04-15T15:58:49.125Z,11.06
2023-04-15T16:03:51.381Z,11.02
2023-04-15T16:08:53.414Z,10.95
2023-04-15T16:13:55.384Z,10.90
2023-04-15T16:19:00.058Z,10.84
2023-04-15T16:24:02.359Z,10.78
2023-04-15T16:29:04.863Z,10.75
2023-04-15T16:34:07.209Z,10.74
2023-04-15T16:39:09.205Z,10.74
2023-04-15T16:44:11.424Z,10.69
2023-04-15T16:49:13.573Z,10.65
2023-04-15T16:54:15.594Z,10.64
2023-04-15T16:59:17.535Z,10.62
2023-04-15T17:04:19.469Z,10.63
2023-04-15T17:09:21.750Z,10.62
2023-04-15T17:14:23.595Z,10.58
2023-04-15T17:19:26.946Z,10.55
2023-04-15T17:24:28.962Z,10.50
2023-04-15T17:29:33.746Z,10.48
2023-04-15T17:34:50.757Z,10.45
2023-04-15T17:39:55.458Z,10.41
2023-04-15T17:44:57.287Z,10.38
2023-04-15T17:49:59.016Z,10.34
2023-04-15T17:55:00.810Z,10.32
2023-04-15T18:00:02.808Z,10.29
2023-04-15T18:05:14.984Z,10.23
2023-04-15T18:10:16.965Z,10.20
2023-04-15T18:15:19.129Z,10.17
2023-04-15T18:20:23.809Z,10.12
2023-04-15T18:25:31.314Z,10.08
2023-04-15T18:30:53.307Z,10.04
2023-04-15T18:35:56.324Z,10.02
2023-04-15T18:40:58.795Z,9.98
2023-04-15T18:46:02.126Z,9.96
2023-04-15T18:51:04.156Z,9.92
2023-04-15T18:56:07.236Z,9.87
2023-04-15T19:01:10.138Z,9.84
2023-04-15T19:06:13.775Z,9.80
2023-04-15T19:11:15.873Z,9.74
2023-04-15T19:16:17.733Z,9.73
2023-04-15T19:21:22.741Z,9.69
2023-04-15T19:26:50.147Z,9.66
2023-04-15T19:31:51.962Z,9.64
2023-04-15T19:36:54.765Z,9.60
2023-04-15T19:41:56.672Z,9.57
2023-04-15T19:46:58.514Z,9.53
2023-04-15T19:52:04.331Z,9.49
2023-04-15T19:57:06.609Z,9.46
2023-04-15T20:02:08.729Z,9.41
2023-04-15T20:07:10.877Z,9.39
2023-04-15T20:12:51.281Z,9.36
2023-04-15T20:17:37.981Z,9.30
2023-04-15T20:22:39.889Z,9.25
2023-04-15T20:27:52.177Z,9.22
2023-04-15T20:32:53.966Z,9.21
2023-04-15T20:37:55.787Z,9.18
2023-04-15T20:42:57.650Z,9.17
2023-04-15T20:47:59.753Z,9.17
2023-04-15T20:53:01.661Z,9.17
2023-04-15T20:58:03.524Z,9.18
2023-04-15T21:03:05.807Z,9.17
2023-04-15T21:08:07.976Z,9.16
2023-04-15T21:13:09.842Z,9.18
2023-04-15T21:18:11.577Z,9.19
2023-04-15T21:23:13.417Z,9.19
2023-04-15T21:28:15.262Z,9.18
2023-04-15T21:33:20.208Z,9.17
2023-04-15T21:38:23.358Z,9.16
2023-04-15T21:43:25.845Z,9.15
2023-04-15T21:48:28.032Z,9.14
2023-04-15T21:53:30.154Z,9.12
2023-04-15T21:58:31.985Z,9.13
2023-04-15T22:03:35.282Z,9.12
2023-04-15T22:09:11.358Z,9.12
2023-04-15T22:14:15.926Z,9.11
2023-04-15T22:19:18.231Z,9.09
2023-04-15T22:24:32.985Z,9.07
2023-04-15T22:29:41.753Z,9.05
2023-04-15T22:34:43.590Z,9.03
2023-04-15T22:39:45.612Z,9.04
2023-04-15T22:44:47.802Z,9.02
2023-04-15T22:49:52.628Z,9.02
2023-04-15T22:54:54.469Z,9.00
2023-04-15T22:59:56.310Z,9.00
2023-04-15T23:04:58.315Z,9.00
2023-04-15T23:10:01.504Z,9.01
2023-04-15T23:15:03.859Z,9.02
2023-04-15T23:20:06.566Z,9.01
2023-04-15T23:25:10.859Z,8.99
2023-04-15T23:30:12.708Z,8.99
2023-04-15T23:40:40.543Z,8.95
2023-04-15T23:45:51.520Z,8.96
2023-04-15T23:56:44.563Z,8.95
